sensor_id;sensor_type;location;lat;lon;timestamp;P1;durP1;ratioP1;P2;durP2;ratioP2
41167;SDS011;26906;45.658;9.272;2022-12-18T05:33:24;23.73;;;18.98;;
41167;SDS011;26906;45.658;9.272;2022-12-18T05:35:52;26.27;;;20.05;;
41167;SDS011;26906;45.658;9.272;2022-12-18T05:38:19;25.77;;;19.77;;
41167;SDS011;26906;45.658;9.272;2022-12-18T05:40:47;26.23;;;20.13;;
41167;SDS011;26906;45.658;9.272;2022-12-18T05:43:13;22.48;;;19.90;;
41167;SDS011;26906;45.658;9.272;2022-12-18T05:45:39;25.35;;;18.63;;
41167;SDS011;26906;45.658;9.272;2022-12-18T05:48:06;21.63;;;18.02;;
41167;SDS011;26906;45.658;9.272;2022-12-18T05:50:36;23.25;;;18.33;;
41167;SDS011;26906;45.658;9.272;2022-12-18T05:53:03;23.58;;;19.15;;
41167;SDS011;26906;45.658;9.272;2022-12-18T05:55:36;23.85;;;18.90;;
41167;SDS011;26906;45.658;9.272;2022-12-18T05:58:04;20.08;;;17.38;;
41167;SDS011;26906;45.658;9.272;2022-12-18T06:00:31;24.83;;;18.35;;
41167;SDS011;26906;45.658;9.272;2022-12-18T06:02:57;22.00;;;17.75;;
41167;SDS011;26906;45.658;9.272;2022-12-18T06:05:23;21.77;;;17.70;;
41167;SDS011;26906;45.658;9.272;2022-12-18T06:07:49;21.88;;;17.75;;
41167;SDS011;26906;45.658;9.272;2022-12-18T06:10:14;21.48;;;17.70;;
41167;SDS011;26906;45.658;9.272;2022-12-18T06:12:40;21.23;;;17.90;;
41167;SDS011;26906;45.658;9.272;2022-12-18T06:15:06;22.98;;;18.13;;
41167;SDS011;26906;45.658;9.272;2022-12-18T06:17:32;19.15;;;16.52;;
41167;SDS011;26906;45.658;9.272;2022-12-18T06:19:58;24.00;;;17.77;;
41167;SDS011;26906;45.658;9.272;2022-12-18T06:22:24;21.52;;;17.85;;
41167;SDS011;26906;45.658;9.272;2022-12-18T06:24:49;19.05;;;15.98;;
41167;SDS011;26906;45.658;9.272;2022-12-18T06:27:15;20.42;;;16.98;;
41167;SDS011;26906;45.658;9.272;2022-12-18T06:29:41;21.45;;;16.83;;
41167;SDS011;26906;45.658;9.272;2022-12-18T06:32:07;19.52;;;16.45;;
41167;SDS011;26906;45.658;9.272;2022-12-18T06:34:33;20.63;;;17.50;;
41167;SDS011;26906;45.658;9.272;2022-12-18T06:37:01;21.10;;;17.50;;
41167;SDS011;26906;45.658;9.272;2022-12-18T06:39:27;19.23;;;16.33;;
41167;SDS011;26906;45.658;9.272;2022-12-18T06:41:53;18.48;;;16.27;;
41167;SDS011;26906;45.658;9.272;2022-12-18T06:44:18;22.55;;;17.10;;
41167;SDS011;26906;45.658;9.272;2022-12-18T06:46:44;20.92;;;17.40;;
41167;SDS011;26906;45.658;9.272;2022-12-18T06:49:10;22.88;;;17.45;;
41167;SDS011;26906;45.658;9.272;2022-12-18T06:51:36;23.08;;;18.05;;
41167;SDS011;26906;45.658;9.272;2022-12-18T06:54:02;19.98;;;16.55;;
41167;SDS011;26906;45.658;9.272;2022-12-18T06:56:28;20.27;;;16.90;;
41167;SDS011;26906;45.658;9.272;2022-12-18T06:58:54;19.85;;;15.85;;
41167;SDS011;26906;45.658;9.272;2022-12-18T07:01:20;18.50;;;16.55;;
41167;SDS011;26906;45.658;9.272;2022-12-18T07:03:46;28.48;;;18.00;;
41167;SDS011;26906;45.658;9.272;2022-12-18T07:06:17;21.95;;;16.58;;
41167;SDS011;26906;45.658;9.272;2022-12-18T07:08:44;26.70;;;17.25;;
41167;SDS011;26906;45.658;9.272;2022-12-18T07:11:11;20.88;;;16.90;;
41167;SDS011;26906;45.658;9.272;2022-12-18T07:13:37;23.55;;;16.52;;
41167;SDS011;26906;45.658;9.272;2022-12-18T07:16:06;27.52;;;16.70;;
41167;SDS011;26906;45.658;9.272;2022-12-18T07:18:33;22.83;;;17.00;;
41167;SDS011;26906;45.658;9.272;2022-12-18T07:21:02;24.75;;;17.67;;
41167;SDS011;26906;45.658;9.272;2022-12-18T07:23:29;23.15;;;17.15;;
41167;SDS011;26906;45.658;9.272;2022-12-18T07:25:59;22.25;;;18.20;;
41167;SDS011;26906;45.658;9.272;2022-12-18T07:28:29;21.17;;;18.15;;
41167;SDS011;26906;45.658;9.272;2022-12-18T07:30:55;24.02;;;18.55;;
41167;SDS011;26906;45.658;9.272;2022-12-18T07:33:21;23.60;;;18.40;;
41167;SDS011;26906;45.658;9.272;2022-12-18T07:35:47;23.17;;;18.95;;
41167;SDS011;26906;45.658;9.272;2022-12-18T07:38:13;23.38;;;18.90;;
41167;SDS011;26906;45.658;9.272;2022-12-18T07:40:38;21.48;;;17.67;;
41167;SDS011;26906;45.658;9.272;2022-12-18T07:43:04;22.58;;;17.58;;
41167;SDS011;26906;45.658;9.272;2022-12-18T07:45:30;22.15;;;17.75;;
41167;SDS011;26906;45.658;9.272;2022-12-18T07:47:55;21.17;;;17.48;;
41167;SDS011;26906;45.658;9.272;2022-12-18T07:50:21;24.23;;;17.45;;
41167;SDS011;26906;45.658;9.272;2022-12-18T07:52:47;20.58;;;17.20;;
41167;SDS011;26906;45.658;9.272;2022-12-18T07:55:12;21.05;;;17.67;;
41167;SDS011;26906;45.658;9.272;2022-12-18T07:57:38;20.70;;;16.63;;
41167;SDS011;26906;45.658;9.272;2022-12-18T08:00:04;19.83;;;16.08;;
41167;SDS011;26906;45.658;9.272;2022-12-18T08:02:37;21.42;;;17.35;;
41167;SDS011;26906;45.658;9.272;2022-12-18T08:05:03;20.38;;;17.20;;
41167;SDS011;26906;45.658;9.272;2022-12-18T08:07:29;21.23;;;17.02;;
41167;SDS011;26906;45.658;9.272;2022-12-18T08:09:55;23.35;;;17.15;;
41167;SDS011;26906;45.658;9.272;2022-12-18T08:12:20;20.50;;;17.30;;
41167;SDS011;26906;45.658;9.272;2022-12-18T08:14:46;20.80;;;17.92;;
41167;SDS011;26906;45.658;9.272;2022-12-18T08:17:12;22.10;;;18.15;;
41167;SDS011;26906;45.658;9.272;2022-12-18T08:19:37;23.02;;;17.38;;
41167;SDS011;26906;45.658;9.272;2022-12-18T08:22:05;22.48;;;17.77;;
41167;SDS011;26906;45.658;9.272;2022-12-18T08:24:30;20.70;;;17.90;;
41167;SDS011;26906;45.658;9.272;2022-12-18T08:26:56;23.52;;;18.77;;
41167;SDS011;26906;45.658;9.272;2022-12-18T08:29:22;23.50;;;18.45;;
41167;SDS011;26906;45.658;9.272;2022-12-18T08:31:48;23.73;;;19.25;;
41167;SDS011;26906;45.658;9.272;2022-12-18T08:34:13;23.58;;;18.55;;
41167;SDS011;26906;45.658;9.272;2022-12-18T08:36:39;25.35;;;19.50;;
41167;SDS011;26906;45.658;9.272;2022-12-18T08:39:05;23.40;;;19.52;;
41167;SDS011;26906;45.658;9.272;2022-12-18T08:41:31;26.92;;;20.58;;
41167;SDS011;26906;45.658;9.272;2022-12-18T08:43:57;29.95;;;21.40;;
41167;SDS011;26906;45.658;9.272;2022-12-18T08:46:42;27.48;;;19.95;;
41167;SDS011;26906;45.658;9.272;2022-12-18T08:49:09;23.85;;;19.50;;
41167;SDS011;26906;45.658;9.272;2022-12-18T08:51:36;24.98;;;20.08;;
41167;SDS011;26906;45.658;9.272;2022-12-18T08:54:03;30.65;;;22.30;;
41167;SDS011;26906;45.658;9.272;2022-12-18T08:56:29;28.58;;;22.98;;
41167;SDS011;26906;45.658;9.272;2022-12-18T08:58:55;27.77;;;22.83;;
41167;SDS011;26906;45.658;9.272;2022-12-18T09:01:21;29.98;;;22.83;;
41167;SDS011;26906;45.658;9.272;2022-12-18T09:03:48;33.85;;;27.08;;
41167;SDS011;26906;45.658;9.272;2022-12-18T09:06:18;43.60;;;35.55;;
41167;SDS011;26906;45.658;9.272;2022-12-18T09:08:45;31.20;;;25.13;;
41167;SDS011;26906;45.658;9.272;2022-12-18T09:13:47;34.70;;;27.17;;
41167;SDS011;26906;45.658;9.272;2022-12-18T09:16:13;35.65;;;27.20;;
41167;SDS011;26906;45.658;9.272;2022-12-18T09:18:39;36.90;;;28.50;;
41167;SDS011;26906;45.658;9.272;2022-12-18T09:21:09;37.50;;;27.65;;
41167;SDS011;26906;45.658;9.272;2022-12-18T09:23:35;36.10;;;27.83;;
41167;SDS011;26906;45.658;9.272;2022-12-18T09:26:01;37.20;;;27.25;;
41167;SDS011;26906;45.658;9.272;2022-12-18T09:28:27;37.78;;;27.60;;
41167;SDS011;26906;45.658;9.272;2022-12-18T09:30:52;39.45;;;30.83;;
41167;SDS011;26906;45.658;9.272;2022-12-18T09:33:18;36.65;;;27.33;;
41167;SDS011;26906;45.658;9.272;2022-12-18T09:35:44;36.78;;;28.38;;
41167;SDS011;26906;45.658;9.272;2022-12-18T09:38:14;41.22;;;29.65;;
41167;SDS011;26906;45.658;9.272;2022-12-18T09:40:48;39.55;;;29.63;;
41167;SDS011;26906;45.658;9.272;2022-12-18T09:46:05;38.03;;;29.02;;
41167;SDS011;26906;45.658;9.272;2022-12-18T09:48:40;30.83;;;22.85;;
41167;SDS011;26906;45.658;9.272;2022-12-18T09:51:16;36.55;;;27.75;;
41167;SDS011;26906;45.658;9.272;2022-12-18T09:53:50;40.28;;;27.73;;
41167;SDS011;26906;45.658;9.272;2022-12-18T09:56:22;37.80;;;28.42;;
41167;SDS011;26906;45.658;9.272;2022-12-18T09:58:57;38.58;;;27.05;;
41167;SDS011;26906;45.658;9.272;2022-12-18T10:01:25;40.80;;;27.90;;
41167;SDS011;26906;45.658;9.272;2022-12-18T10:03:52;38.20;;;27.70;;
41167;SDS011;26906;45.658;9.272;2022-12-18T10:06:33;36.83;;;27.23;;
41167;SDS011;26906;45.658;9.272;2022-12-18T10:12:23;32.67;;;25.30;;
41167;SDS011;26906;45.658;9.272;2022-12-18T10:18:02;34.30;;;25.70;;
41167;SDS011;26906;45.658;9.272;2022-12-18T10:20:38;31.83;;;24.90;;
41167;SDS011;26906;45.658;9.272;2022-12-18T10:25:55;31.92;;;25.33;;
41167;SDS011;26906;45.658;9.272;2022-12-18T10:28:29;35.33;;;26.00;;
41167;SDS011;26906;45.658;9.272;2022-12-18T10:30:56;32.55;;;26.70;;
41167;SDS011;26906;45.658;9.272;2022-12-18T10:33:23;33.72;;;26.38;;
41167;SDS011;26906;45.658;9.272;2022-12-18T10:35:53;33.95;;;25.90;;
41167;SDS011;26906;45.658;9.272;2022-12-18T10:38:25;30.98;;;25.83;;
41167;SDS011;26906;45.658;9.272;2022-12-18T10:40:57;29.80;;;21.92;;
41167;SDS011;26906;45.658;9.272;2022-12-18T10:43:27;28.15;;;21.55;;
41167;SDS011;26906;45.658;9.272;2022-12-18T10:45:59;31.98;;;22.08;;
41167;SDS011;26906;45.658;9.272;2022-12-18T10:51:19;26.55;;;20.17;;
41167;SDS011;26906;45.658;9.272;2022-12-18T10:53:57;27.08;;;20.23;;
41167;SDS011;26906;45.658;9.272;2022-12-18T10:56:28;24.95;;;19.65;;
41167;SDS011;26906;45.658;9.272;2022-12-18T10:59:03;27.35;;;20.58;;
41167;SDS011;26906;45.658;9.272;2022-12-18T11:01:44;26.17;;;19.17;;
41167;SDS011;26906;45.658;9.272;2022-12-18T11:04:20;24.58;;;19.08;;
41167;SDS011;26906;45.658;9.272;2022-12-18T11:09:29;20.38;;;15.45;;
41167;SDS011;26906;45.658;9.272;2022-12-18T11:14:47;22.60;;;16.45;;
41167;SDS011;26906;45.658;9.272;2022-12-18T11:17:19;24.88;;;17.13;;
41167;SDS011;26906;45.658;9.272;2022-12-18T11:19:54;24.67;;;16.67;;
41167;SDS011;26906;45.658;9.272;2022-12-18T11:22:25;23.90;;;17.73;;
41167;SDS011;26906;45.658;9.272;2022-12-18T11:25:04;25.48;;;17.73;;
41167;SDS011;26906;45.658;9.272;2022-12-18T11:27:36;25.00;;;17.83;;
41167;SDS011;26906;45.658;9.272;2022-12-18T11:30:07;23.00;;;17.70;;
41167;SDS011;26906;45.658;9.272;2022-12-18T11:32:46;26.30;;;17.88;;
41167;SDS011;26906;45.658;9.272;2022-12-18T11:35:23;25.52;;;18.45;;
41167;SDS011;26906;45.658;9.272;2022-12-18T11:38:02;27.20;;;17.45;;
41167;SDS011;26906;45.658;9.272;2022-12-18T11:40:36;21.10;;;15.43;;
41167;SDS011;26906;45.658;9.272;2022-12-18T11:43:15;21.95;;;14.75;;
41167;SDS011;26906;45.658;9.272;2022-12-18T11:45:51;22.88;;;15.63;;
41167;SDS011;26906;45.658;9.272;2022-12-18T11:48:34;21.75;;;16.05;;
41167;SDS011;26906;45.658;9.272;2022-12-18T11:51:04;27.15;;;17.52;;
41167;SDS011;26906;45.658;9.272;2022-12-18T11:53:37;21.95;;;16.00;;
41167;SDS011;26906;45.658;9.272;2022-12-18T12:05:11;25.67;;;17.90;;
41167;SDS011;26906;45.658;9.272;2022-12-18T12:07:51;25.10;;;17.95;;
41167;SDS011;26906;45.658;9.272;2022-12-18T12:16:18;23.83;;;16.42;;
41167;SDS011;26906;45.658;9.272;2022-12-18T12:21:50;22.55;;;16.05;;
41167;SDS011;26906;45.658;9.272;2022-12-18T12:27:44;20.90;;;15.00;;
41167;SDS011;26906;45.658;9.272;2022-12-18T12:33:16;26.40;;;18.38;;
41167;SDS011;26906;45.658;9.272;2022-12-18T12:38:41;29.80;;;21.77;;
41167;SDS011;26906;45.658;9.272;2022-12-18T12:41:14;29.58;;;20.80;;
41167;SDS011;26906;45.658;9.272;2022-12-18T12:44:03;31.63;;;22.50;;
41167;SDS011;26906;45.658;9.272;2022-12-18T12:46:34;33.42;;;22.58;;
41167;SDS011;26906;45.658;9.272;2022-12-18T12:49:08;31.63;;;22.17;;
41167;SDS011;26906;45.658;9.272;2022-12-18T12:51:40;35.58;;;23.10;;
41167;SDS011;26906;45.658;9.272;2022-12-18T12:54:12;31.63;;;23.00;;
41167;SDS011;26906;45.658;9.272;2022-12-18T12:56:48;30.90;;;22.90;;
41167;SDS011;26906;45.658;9.272;2022-12-18T13:02:31;35.25;;;25.20;;
41167;SDS011;26906;45.658;9.272;2022-12-18T13:05:30;38.45;;;24.80;;
41167;SDS011;26906;45.658;9.272;2022-12-18T13:08:07;34.90;;;24.35;;
41167;SDS011;26906;45.658;9.272;2022-12-18T13:10:47;36.05;;;25.15;;
41167;SDS011;26906;45.658;9.272;2022-12-18T13:13:13;35.88;;;25.58;;
41167;SDS011;26906;45.658;9.272;2022-12-18T13:21:01;35.97;;;23.80;;
41167;SDS011;26906;45.658;9.272;2022-12-18T13:23:32;35.17;;;24.23;;
41167;SDS011;26906;45.658;9.272;2022-12-18T13:31:13;32.45;;;23.40;;
41167;SDS011;26906;45.658;9.272;2022-12-18T13:34:11;35.78;;;24.17;;
41167;SDS011;26906;45.658;9.272;2022-12-18T13:36:41;33.65;;;24.08;;
41167;SDS011;26906;45.658;9.272;2022-12-18T13:39:15;33.92;;;23.52;;
41167;SDS011;26906;45.658;9.272;2022-12-18T13:41:51;29.40;;;22.60;;
41167;SDS011;26906;45.658;9.272;2022-12-18T13:48:03;34.70;;;23.50;;
41167;SDS011;26906;45.658;9.272;2022-12-18T13:50:29;34.25;;;23.02;;
41167;SDS011;26906;45.658;9.272;2022-12-18T13:52:55;34.25;;;23.77;;
41167;SDS011;26906;45.658;9.272;2022-12-18T13:55:21;35.92;;;24.20;;
41167;SDS011;26906;45.658;9.272;2022-12-18T13:57:47;33.85;;;23.02;;
41167;SDS011;26906;45.658;9.272;2022-12-18T14:00:23;33.67;;;22.95;;
41167;SDS011;26906;45.658;9.272;2022-12-18T14:02:53;31.05;;;23.48;;
41167;SDS011;26906;45.658;9.272;2022-12-18T14:07:55;31.05;;;22.70;;
41167;SDS011;26906;45.658;9.272;2022-12-18T14:10:35;29.48;;;22.55;;
41167;SDS011;26906;45.658;9.272;2022-12-18T14:13:09;29.45;;;22.65;;
41167;SDS011;26906;45.658;9.272;2022-12-18T14:15:42;29.70;;;21.03;;
41167;SDS011;26906;45.658;9.272;2022-12-18T14:20:51;32.85;;;24.13;;
41167;SDS011;26906;45.658;9.272;2022-12-18T14:25:56;31.15;;;22.67;;
41167;SDS011;26906;45.658;9.272;2022-12-18T14:28:22;35.88;;;23.63;;
41167;SDS011;26906;45.658;9.272;2022-12-18T14:30:48;35.05;;;24.63;;
41167;SDS011;26906;45.658;9.272;2022-12-18T14:33:15;34.53;;;24.50;;
41167;SDS011;26906;45.658;9.272;2022-12-18T14:41:05;33.25;;;23.60;;
41167;SDS011;26906;45.658;9.272;2022-12-18T14:43:36;32.40;;;24.75;;
41167;SDS011;26906;45.658;9.272;2022-12-18T14:46:05;33.58;;;25.20;;
41167;SDS011;26906;45.658;9.272;2022-12-18T14:48:51;32.47;;;24.58;;
41167;SDS011;26906;45.658;9.272;2022-12-18T14:51:17;35.35;;;24.58;;
41167;SDS011;26906;45.658;9.272;2022-12-18T14:53:52;33.88;;;25.15;;
41167;SDS011;26906;45.658;9.272;2022-12-18T14:56:21;36.38;;;25.88;;
41167;SDS011;26906;45.658;9.272;2022-12-18T15:01:18;42.85;;;26.25;;
41167;SDS011;26906;45.658;9.272;2022-12-18T15:03:56;42.10;;;26.58;;
41167;SDS011;26906;45.658;9.272;2022-12-18T15:08:51;38.28;;;27.75;;
41167;SDS011;26906;45.658;9.272;2022-12-18T15:16:56;40.88;;;27.73;;
41167;SDS011;26906;45.658;9.272;2022-12-18T15:21:58;46.40;;;29.25;;
41167;SDS011;26906;45.658;9.272;2022-12-18T15:24:26;44.90;;;28.55;;
41167;SDS011;26906;45.658;9.272;2022-12-18T15:26:55;41.30;;;28.65;;
41167;SDS011;26906;45.658;9.272;2022-12-18T15:29:21;40.85;;;28.25;;
41167;SDS011;26906;45.658;9.272;2022-12-18T15:32:00;45.28;;;29.98;;
41167;SDS011;26906;45.658;9.272;2022-12-18T15:34:28;47.13;;;29.25;;
41167;SDS011;26906;45.658;9.272;2022-12-18T15:36:54;44.22;;;30.33;;
41167;SDS011;26906;45.658;9.272;2022-12-18T15:39:20;46.58;;;30.00;;
41167;SDS011;26906;45.658;9.272;2022-12-18T15:41:46;48.33;;;29.23;;
41167;SDS011;26906;45.658;9.272;2022-12-18T15:44:30;42.53;;;28.70;;
41167;SDS011;26906;45.658;9.272;2022-12-18T15:46:57;45.97;;;30.77;;
41167;SDS011;26906;45.658;9.272;2022-12-18T15:49:23;49.60;;;30.98;;
41167;SDS011;26906;45.658;9.272;2022-12-18T15:51:50;48.38;;;31.05;;
41167;SDS011;26906;45.658;9.272;2022-12-18T15:54:18;44.88;;;31.40;;
41167;SDS011;26906;45.658;9.272;2022-12-18T15:57:07;46.17;;;30.67;;
41167;SDS011;26906;45.658;9.272;2022-12-18T15:59:50;45.38;;;30.00;;
41167;SDS011;26906;45.658;9.272;2022-12-18T16:02:18;43.45;;;31.50;;
41167;SDS011;26906;45.658;9.272;2022-12-18T16:04:44;43.53;;;29.27;;
41167;SDS011;26906;45.658;9.272;2022-12-18T16:07:11;45.53;;;30.95;;
41167;SDS011;26906;45.658;9.272;2022-12-18T16:09:37;46.88;;;32.15;;
41167;SDS011;26906;45.658;9.272;2022-12-18T16:12:03;52.42;;;36.70;;
41167;SDS011;26906;45.658;9.272;2022-12-18T16:14:31;51.67;;;34.70;;
41167;SDS011;26906;45.658;9.272;2022-12-18T16:16:59;48.45;;;33.80;;
41167;SDS011;26906;45.658;9.272;2022-12-18T16:19:30;45.92;;;33.10;;
41167;SDS011;26906;45.658;9.272;2022-12-18T16:21:56;45.95;;;32.45;;
41167;SDS011;26906;45.658;9.272;2022-12-18T16:24:24;43.10;;;30.92;;
41167;SDS011;26906;45.658;9.272;2022-12-18T16:26:52;45.33;;;31.90;;
41167;SDS011;26906;45.658;9.272;2022-12-18T16:29:18;50.22;;;33.38;;
41167;SDS011;26906;45.658;9.272;2022-12-18T16:31:49;51.03;;;32.83;;
41167;SDS011;26906;45.658;9.272;2022-12-18T16:34:23;45.83;;;30.90;;
41167;SDS011;26906;45.658;9.272;2022-12-18T16:36:51;45.83;;;30.77;;
41167;SDS011;26906;45.658;9.272;2022-12-18T16:39:19;45.90;;;29.65;;
41167;SDS011;26906;45.658;9.272;2022-12-18T16:41:45;45.03;;;32.85;;
41167;SDS011;26906;45.658;9.272;2022-12-18T16:44:11;48.70;;;32.55;;
41167;SDS011;26906;45.658;9.272;2022-12-18T16:46:37;47.58;;;33.35;;
41167;SDS011;26906;45.658;9.272;2022-12-18T16:49:04;47.35;;;30.55;;
41167;SDS011;26906;45.658;9.272;2022-12-18T16:51:30;48.58;;;32.50;;
41167;SDS011;26906;45.658;9.272;2022-12-18T16:53:56;44.03;;;30.98;;
41167;SDS011;26906;45.658;9.272;2022-12-18T16:56:21;47.08;;;31.27;;
41167;SDS011;26906;45.658;9.272;2022-12-18T16:58:49;47.78;;;30.63;;
41167;SDS011;26906;45.658;9.272;2022-12-18T17:01:16;48.25;;;31.80;;
41167;SDS011;26906;45.658;9.272;2022-12-18T17:03:42;51.40;;;33.42;;
41167;SDS011;26906;45.658;9.272;2022-12-18T17:06:08;62.30;;;40.95;;
41167;SDS011;26906;45.658;9.272;2022-12-18T17:08:33;76.07;;;45.88;;
41167;SDS011;26906;45.658;9.272;2022-12-18T17:11:03;96.38;;;60.90;;
41167;SDS011;26906;45.658;9.272;2022-12-18T17:13:31;199.10;;;98.25;;
41167;SDS011;26906;45.658;9.272;2022-12-18T17:16:01;88.03;;;49.28;;
41167;SDS011;26906;45.658;9.272;2022-12-18T17:18:28;87.38;;;49.20;;
41167;SDS011;26906;45.658;9.272;2022-12-18T17:21:00;111.28;;;61.40;;
41167;SDS011;26906;45.658;9.272;2022-12-18T17:23:27;84.93;;;51.17;;
41167;SDS011;26906;45.658;9.272;2022-12-18T17:25:54;81.28;;;50.50;;
41167;SDS011;26906;45.658;9.272;2022-12-18T17:28:21;77.43;;;45.45;;
41167;SDS011;26906;45.658;9.272;2022-12-18T17:30:47;72.32;;;45.17;;
41167;SDS011;26906;45.658;9.272;2022-12-18T17:33:13;71.82;;;43.83;;
41167;SDS011;26906;45.658;9.272;2022-12-18T17:35:38;65.25;;;39.67;;
41167;SDS011;26906;45.658;9.272;2022-12-18T17:38:04;59.33;;;38.35;;
41167;SDS011;26906;45.658;9.272;2022-12-18T17:40:31;68.45;;;43.42;;
41167;SDS011;26906;45.658;9.272;2022-12-18T17:42:57;71.32;;;39.28;;
41167;SDS011;26906;45.658;9.272;2022-12-18T17:45:24;67.57;;;40.97;;
41167;SDS011;26906;45.658;9.272;2022-12-18T17:47:50;61.13;;;38.78;;
41167;SDS011;26906;45.658;9.272;2022-12-18T17:50:16;57.20;;;38.22;;
41167;SDS011;26906;45.658;9.272;2022-12-18T17:52:41;57.50;;;40.03;;
41167;SDS011;26906;45.658;9.272;2022-12-18T17:55:07;64.50;;;48.80;;
41167;SDS011;26906;45.658;9.272;2022-12-18T17:57:34;55.65;;;38.25;;
41167;SDS011;26906;45.658;9.272;2022-12-18T18:00:00;52.35;;;34.72;;
41167;SDS011;26906;45.658;9.272;2022-12-18T18:02:34;52.97;;;37.55;;
41167;SDS011;26906;45.658;9.272;2022-12-18T18:05:00;64.05;;;42.45;;
41167;SDS011;26906;45.658;9.272;2022-12-18T18:07:25;74.97;;;47.05;;
41167;SDS011;26906;45.658;9.272;2022-12-18T18:09:51;56.97;;;37.15;;
41167;SDS011;26906;45.658;9.272;2022-12-18T18:12:17;53.58;;;34.40;;
41167;SDS011;26906;45.658;9.272;2022-12-18T18:17:26;49.97;;;33.08;;
41167;SDS011;26906;45.658;9.272;2022-12-18T18:19:52;56.45;;;37.28;;
41167;SDS011;26906;45.658;9.272;2022-12-18T18:22:18;57.08;;;37.92;;
41167;SDS011;26906;45.658;9.272;2022-12-18T18:24:44;56.85;;;38.05;;
41167;SDS011;26906;45.658;9.272;2022-12-18T18:27:11;55.03;;;38.40;;
41167;SDS011;26906;45.658;9.272;2022-12-18T18:29:37;61.75;;;41.42;;
41167;SDS011;26906;45.658;9.272;2022-12-18T18:32:04;64.55;;;39.97;;
41167;SDS011;26906;45.658;9.272;2022-12-18T18:34:30;61.70;;;39.22;;
41167;SDS011;26906;45.658;9.272;2022-12-18T18:36:56;55.25;;;36.30;;
41167;SDS011;26906;45.658;9.272;2022-12-18T18:39:22;55.38;;;36.28;;
41167;SDS011;26906;45.658;9.272;2022-12-18T18:41:48;54.58;;;35.67;;
41167;SDS011;26906;45.658;9.272;2022-12-18T18:44:17;55.17;;;35.70;;
41167;SDS011;26906;45.658;9.272;2022-12-18T18:46:44;54.08;;;35.03;;
41167;SDS011;26906;45.658;9.272;2022-12-18T18:49:11;50.42;;;34.78;;
41167;SDS011;26906;45.658;9.272;2022-12-18T18:51:38;59.78;;;36.47;;
41167;SDS011;26906;45.658;9.272;2022-12-18T18:54:04;54.97;;;35.92;;
41167;SDS011;26906;45.658;9.272;2022-12-18T18:56:30;56.45;;;36.72;;
41167;SDS011;26906;45.658;9.272;2022-12-18T18:58:56;57.28;;;36.17;;
41167;SDS011;26906;45.658;9.272;2022-12-18T19:01:23;70.32;;;41.10;;
41167;SDS011;26906;45.658;9.272;2022-12-18T19:03:50;67.97;;;38.88;;
41167;SDS011;26906;45.658;9.272;2022-12-18T19:06:24;69.82;;;40.83;;
41167;SDS011;26906;45.658;9.272;2022-12-18T19:08:51;75.13;;;42.33;;
41167;SDS011;26906;45.658;9.272;2022-12-18T19:11:19;73.20;;;42.00;;
41167;SDS011;26906;45.658;9.272;2022-12-18T19:14:06;65.55;;;38.55;;
41167;SDS011;26906;45.658;9.272;2022-12-18T19:16:33;51.80;;;30.83;;
41167;SDS011;26906;45.658;9.272;2022-12-18T19:19:00;65.75;;;39.13;;
41167;SDS011;26906;45.658;9.272;2022-12-18T19:21:26;60.03;;;37.58;;
41167;SDS011;26906;45.658;9.272;2022-12-18T19:23:52;54.65;;;37.28;;
41167;SDS011;26906;45.658;9.272;2022-12-18T19:26:18;60.22;;;39.60;;
41167;SDS011;26906;45.658;9.272;2022-12-18T19:28:45;58.20;;;38.97;;
41167;SDS011;26906;45.658;9.272;2022-12-18T19:31:11;67.30;;;42.88;;
41167;SDS011;26906;45.658;9.272;2022-12-18T19:33:40;71.00;;;43.80;;
41167;SDS011;26906;45.658;9.272;2022-12-18T19:36:11;75.60;;;45.40;;
41167;SDS011;26906;45.658;9.272;2022-12-18T19:38:44;83.22;;;44.88;;
41167;SDS011;26906;45.658;9.272;2022-12-18T19:41:11;86.88;;;47.50;;
41167;SDS011;26906;45.658;9.272;2022-12-18T19:43:37;98.63;;;47.85;;
41167;SDS011;26906;45.658;9.272;2022-12-18T19:46:06;100.88;;;46.78;;
41167;SDS011;26906;45.658;9.272;2022-12-18T19:48:34;89.40;;;46.10;;
41167;SDS011;26906;45.658;9.272;2022-12-18T19:51:04;101.97;;;46.47;;
41167;SDS011;26906;45.658;9.272;2022-12-18T19:53:31;101.10;;;49.33;;
41167;SDS011;26906;45.658;9.272;2022-12-18T19:55:57;92.32;;;48.20;;
41167;SDS011;26906;45.658;9.272;2022-12-18T19:58:23;92.47;;;47.67;;
41167;SDS011;26906;45.658;9.272;2022-12-18T20:00:50;97.70;;;48.45;;
41167;SDS011;26906;45.658;9.272;2022-12-18T20:03:15;91.05;;;48.35;;
41167;SDS011;26906;45.658;9.272;2022-12-18T20:05:41;97.00;;;49.47;;
41167;SDS011;26906;45.658;9.272;2022-12-18T20:08:06;154.25;;;51.63;;
41167;SDS011;26906;45.658;9.272;2022-12-18T20:10:32;200.75;;;51.72;;
41167;SDS011;26906;45.658;9.272;2022-12-18T20:12:58;106.75;;;49.17;;
41167;SDS011;26906;45.658;9.272;2022-12-18T20:15:23;121.28;;;50.40;;
41167;SDS011;26906;45.658;9.272;2022-12-18T20:17:49;106.65;;;47.58;;
41167;SDS011;26906;45.658;9.272;2022-12-18T20:20:15;102.75;;;48.25;;
41167;SDS011;26906;45.658;9.272;2022-12-18T20:22:41;102.15;;;47.42;;
41167;SDS011;26906;45.658;9.272;2022-12-18T20:25:07;103.43;;;47.53;;
41167;SDS011;26906;45.658;9.272;2022-12-18T20:27:33;119.82;;;49.45;;
